sensor_id;sensor_type;location;lat;lon;timestamp;P1;durP1;ratioP1;P2;durP2;ratioP2
39020;SDS011;25188;51.958;5.842;2022-12-07T00:02:18;18.30;;;11.50;;
39020;SDS011;25188;51.958;5.842;2022-12-07T00:04:43;19.13;;;11.80;;
39020;SDS011;25188;51.958;5.842;2022-12-07T00:07:09;17.27;;;11.37;;
39020;SDS011;25188;51.958;5.842;2022-12-07T00:09:34;15.83;;;10.47;;
39020;SDS011;25188;51.958;5.842;2022-12-07T00:12:00;16.87;;;11.07;;
39020;SDS011;25188;51.958;5.842;2022-12-07T00:14:26;16.37;;;9.77;;
39020;SDS011;25188;51.958;5.842;2022-12-07T00:16:51;16.50;;;11.13;;
39020;SDS011;25188;51.958;5.842;2022-12-07T00:19:17;17.80;;;11.50;;
39020;SDS011;25188;51.958;5.842;2022-12-07T00:21:43;16.40;;;11.03;;
39020;SDS011;25188;51.958;5.842;2022-12-07T00:24:09;16.10;;;10.67;;
39020;SDS011;25188;51.958;5.842;2022-12-07T00:26:37;17.37;;;11.03;;
39020;SDS011;25188;51.958;5.842;2022-12-07T00:29:06;20.63;;;11.10;;
39020;SDS011;25188;51.958;5.842;2022-12-07T00:31:35;15.10;;;10.03;;
39020;SDS011;25188;51.958;5.842;2022-12-07T00:34:04;15.60;;;9.73;;
39020;SDS011;25188;51.958;5.842;2022-12-07T00:36:32;19.63;;;11.37;;
39020;SDS011;25188;51.958;5.842;2022-12-07T00:38:59;16.57;;;10.80;;
39020;SDS011;25188;51.958;5.842;2022-12-07T00:41:25;17.00;;;10.93;;
39020;SDS011;25188;51.958;5.842;2022-12-07T00:43:52;16.17;;;10.87;;
39020;SDS011;25188;51.958;5.842;2022-12-07T00:46:19;18.07;;;11.23;;
39020;SDS011;25188;51.958;5.842;2022-12-07T00:48:45;17.03;;;10.50;;
39020;SDS011;25188;51.958;5.842;2022-12-07T00:51:13;17.80;;;11.50;;
39020;SDS011;25188;51.958;5.842;2022-12-07T00:53:39;15.43;;;10.50;;
39020;SDS011;25188;51.958;5.842;2022-12-07T00:56:06;16.00;;;10.50;;
39020;SDS011;25188;51.958;5.842;2022-12-07T00:58:33;18.37;;;10.33;;
39020;SDS011;25188;51.958;5.842;2022-12-07T01:01:02;19.50;;;11.40;;
39020;SDS011;25188;51.958;5.842;2022-12-07T01:03:29;17.83;;;10.60;;
39020;SDS011;25188;51.958;5.842;2022-12-07T01:05:54;15.70;;;11.10;;
39020;SDS011;25188;51.958;5.842;2022-12-07T01:08:21;18.37;;;11.10;;
39020;SDS011;25188;51.958;5.842;2022-12-07T01:10:48;18.53;;;11.23;;
39020;SDS011;25188;51.958;5.842;2022-12-07T01:13:15;17.10;;;10.63;;
39020;SDS011;25188;51.958;5.842;2022-12-07T01:15:41;14.80;;;10.83;;
39020;SDS011;25188;51.958;5.842;2022-12-07T01:18:08;20.50;;;11.17;;
39020;SDS011;25188;51.958;5.842;2022-12-07T01:20:34;16.33;;;11.27;;
39020;SDS011;25188;51.958;5.842;2022-12-07T01:23:00;19.07;;;10.83;;
39020;SDS011;25188;51.958;5.842;2022-12-07T01:25:25;14.97;;;10.13;;
39020;SDS011;25188;51.958;5.842;2022-12-07T01:27:51;17.47;;;11.30;;
39020;SDS011;25188;51.958;5.842;2022-12-07T01:30:16;17.53;;;10.50;;
39020;SDS011;25188;51.958;5.842;2022-12-07T01:32:42;16.50;;;10.50;;
39020;SDS011;25188;51.958;5.842;2022-12-07T01:35:08;16.13;;;10.70;;
39020;SDS011;25188;51.958;5.842;2022-12-07T01:37:37;19.50;;;11.07;;
39020;SDS011;25188;51.958;5.842;2022-12-07T01:40:04;18.87;;;11.40;;
39020;SDS011;25188;51.958;5.842;2022-12-07T01:42:31;15.20;;;10.57;;
39020;SDS011;25188;51.958;5.842;2022-12-07T01:47:54;15.80;;;10.10;;
39020;SDS011;25188;51.958;5.842;2022-12-07T01:50:21;14.50;;;9.60;;
39020;SDS011;25188;51.958;5.842;2022-12-07T01:52:50;14.97;;;10.40;;
39020;SDS011;25188;51.958;5.842;2022-12-07T01:55:18;18.00;;;10.70;;
39020;SDS011;25188;51.958;5.842;2022-12-07T01:57:47;15.80;;;10.33;;
39020;SDS011;25188;51.958;5.842;2022-12-07T02:00:16;17.33;;;10.67;;
39020;SDS011;25188;51.958;5.842;2022-12-07T02:05:26;15.25;;;9.88;;
39020;SDS011;25188;51.958;5.842;2022-12-07T02:07:53;19.07;;;10.37;;
39020;SDS011;25188;51.958;5.842;2022-12-07T02:10:25;16.53;;;9.87;;
39020;SDS011;25188;51.958;5.842;2022-12-07T02:12:54;15.83;;;10.47;;
39020;SDS011;25188;51.958;5.842;2022-12-07T02:15:26;17.80;;;11.03;;
39020;SDS011;25188;51.958;5.842;2022-12-07T02:20:28;14.93;;;9.67;;
39020;SDS011;25188;51.958;5.842;2022-12-07T02:25:55;14.80;;;9.50;;
39020;SDS011;25188;51.958;5.842;2022-12-07T02:31:08;17.23;;;10.10;;
39020;SDS011;25188;51.958;5.842;2022-12-07T02:33:47;18.37;;;9.30;;
39020;SDS011;25188;51.958;5.842;2022-12-07T02:38:50;15.90;;;8.57;;
39020;SDS011;25188;51.958;5.842;2022-12-07T02:41:28;13.07;;;8.63;;
39020;SDS011;25188;51.958;5.842;2022-12-07T02:43:59;16.17;;;9.17;;
39020;SDS011;25188;51.958;5.842;2022-12-07T02:46:31;14.70;;;9.30;;
39020;SDS011;25188;51.958;5.842;2022-12-07T02:49:00;17.07;;;9.47;;
39020;SDS011;25188;51.958;5.842;2022-12-07T02:51:29;19.23;;;9.60;;
39020;SDS011;25188;51.958;5.842;2022-12-07T02:53:56;18.23;;;8.90;;
39020;SDS011;25188;51.958;5.842;2022-12-07T03:15:18;15.90;;;8.57;;
39020;SDS011;25188;51.958;5.842;2022-12-07T03:18:07;16.97;;;7.87;;
39020;SDS011;25188;51.958;5.842;2022-12-07T03:20:36;18.13;;;7.53;;
39020;SDS011;25188;51.958;5.842;2022-12-07T03:23:05;12.03;;;6.27;;
39020;SDS011;25188;51.958;5.842;2022-12-07T03:25:34;11.83;;;6.00;;
39020;SDS011;25188;51.958;5.842;2022-12-07T03:28:05;14.43;;;7.47;;
39020;SDS011;25188;51.958;5.842;2022-12-07T03:33:02;11.57;;;6.70;;
39020;SDS011;25188;51.958;5.842;2022-12-07T03:35:43;14.67;;;5.90;;
39020;SDS011;25188;51.958;5.842;2022-12-07T03:38:18;11.88;;;5.68;;
39020;SDS011;25188;51.958;5.842;2022-12-07T03:43:41;11.63;;;5.23;;
39020;SDS011;25188;51.958;5.842;2022-12-07T03:48:58;14.02;;;5.57;;
39020;SDS011;25188;51.958;5.842;2022-12-07T03:51:42;14.43;;;5.23;;
39020;SDS011;25188;51.958;5.842;2022-12-07T03:54:23;11.63;;;5.23;;
39020;SDS011;25188;51.958;5.842;2022-12-07T03:56:54;13.37;;;5.37;;
39020;SDS011;25188;51.958;5.842;2022-12-07T03:59:22;10.90;;;5.33;;
39020;SDS011;25188;51.958;5.842;2022-12-07T04:01:55;9.70;;;5.17;;
39020;SDS011;25188;51.958;5.842;2022-12-07T04:04:25;11.70;;;5.70;;
39020;SDS011;25188;51.958;5.842;2022-12-07T04:06:51;10.03;;;5.23;;
39020;SDS011;25188;51.958;5.842;2022-12-07T04:09:17;10.83;;;5.77;;
39020;SDS011;25188;51.958;5.842;2022-12-07T04:11:42;11.23;;;5.80;;
39020;SDS011;25188;51.958;5.842;2022-12-07T04:14:08;10.10;;;5.53;;
39020;SDS011;25188;51.958;5.842;2022-12-07T04:16:43;8.37;;;5.30;;
39020;SDS011;25188;51.958;5.842;2022-12-07T04:19:10;11.43;;;5.40;;
39020;SDS011;25188;51.958;5.842;2022-12-07T04:21:35;11.87;;;6.03;;
39020;SDS011;25188;51.958;5.842;2022-12-07T04:24:01;12.13;;;5.27;;
39020;SDS011;25188;51.958;5.842;2022-12-07T04:26:27;15.50;;;5.87;;
39020;SDS011;25188;51.958;5.842;2022-12-07T04:28:52;10.50;;;5.23;;
39020;SDS011;25188;51.958;5.842;2022-12-07T04:31:18;12.83;;;5.60;;
39020;SDS011;25188;51.958;5.842;2022-12-07T04:33:43;12.50;;;5.20;;
39020;SDS011;25188;51.958;5.842;2022-12-07T04:36:09;10.27;;;5.20;;
39020;SDS011;25188;51.958;5.842;2022-12-07T04:38:34;15.43;;;5.47;;
39020;SDS011;25188;51.958;5.842;2022-12-07T04:41:09;12.77;;;6.27;;
39020;SDS011;25188;51.958;5.842;2022-12-07T04:43:35;7.80;;;5.03;;
39020;SDS011;25188;51.958;5.842;2022-12-07T04:46:01;7.93;;;4.90;;
39020;SDS011;25188;51.958;5.842;2022-12-07T04:48:28;10.50;;;5.37;;
39020;SDS011;25188;51.958;5.842;2022-12-07T04:50:53;9.43;;;5.30;;
39020;SDS011;25188;51.958;5.842;2022-12-07T04:53:19;11.13;;;5.00;;
39020;SDS011;25188;51.958;5.842;2022-12-07T04:55:45;14.97;;;6.60;;
39020;SDS011;25188;51.958;5.842;2022-12-07T04:58:11;15.33;;;6.17;;
39020;SDS011;25188;51.958;5.842;2022-12-07T05:00:37;11.70;;;5.50;;
39020;SDS011;25188;51.958;5.842;2022-12-07T05:03:03;12.13;;;6.03;;
39020;SDS011;25188;51.958;5.842;2022-12-07T05:05:28;12.13;;;5.70;;
39020;SDS011;25188;51.958;5.842;2022-12-07T05:07:54;11.30;;;5.83;;
39020;SDS011;25188;51.958;5.842;2022-12-07T05:10:20;10.73;;;6.10;;
39020;SDS011;25188;51.958;5.842;2022-12-07T05:12:46;13.47;;;5.93;;
39020;SDS011;25188;51.958;5.842;2022-12-07T05:15:12;12.03;;;5.80;;
39020;SDS011;25188;51.958;5.842;2022-12-07T05:17:38;11.47;;;5.07;;
39020;SDS011;25188;51.958;5.842;2022-12-07T05:20:04;10.93;;;4.73;;
39020;SDS011;25188;51.958;5.842;2022-12-07T05:22:31;10.03;;;5.17;;
39020;SDS011;25188;51.958;5.842;2022-12-07T05:24:56;12.47;;;4.77;;
39020;SDS011;25188;51.958;5.842;2022-12-07T05:27:22;10.67;;;5.43;;
39020;SDS011;25188;51.958;5.842;2022-12-07T05:29:49;11.53;;;5.20;;
39020;SDS011;25188;51.958;5.842;2022-12-07T05:32:15;11.13;;;5.53;;
39020;SDS011;25188;51.958;5.842;2022-12-07T05:34:41;8.63;;;4.07;;
39020;SDS011;25188;51.958;5.842;2022-12-07T05:37:06;12.83;;;5.83;;
39020;SDS011;25188;51.958;5.842;2022-12-07T05:39:32;11.83;;;5.67;;
39020;SDS011;25188;51.958;5.842;2022-12-07T05:41:58;10.13;;;5.60;;
39020;SDS011;25188;51.958;5.842;2022-12-07T05:44:45;9.43;;;6.00;;
39020;SDS011;25188;51.958;5.842;2022-12-07T05:47:11;15.60;;;4.90;;
39020;SDS011;25188;51.958;5.842;2022-12-07T05:49:38;9.70;;;5.00;;
39020;SDS011;25188;51.958;5.842;2022-12-07T05:52:03;8.57;;;4.97;;
39020;SDS011;25188;51.958;5.842;2022-12-07T05:54:30;13.20;;;5.13;;
39020;SDS011;25188;51.958;5.842;2022-12-07T05:56:55;13.23;;;4.57;;
39020;SDS011;25188;51.958;5.842;2022-12-07T05:59:22;11.43;;;4.93;;
39020;SDS011;25188;51.958;5.842;2022-12-07T06:01:52;9.43;;;4.70;;
39020;SDS011;25188;51.958;5.842;2022-12-07T06:04:19;11.70;;;5.20;;
39020;SDS011;25188;51.958;5.842;2022-12-07T06:06:45;10.47;;;4.80;;
39020;SDS011;25188;51.958;5.842;2022-12-07T06:09:12;10.67;;;4.60;;
39020;SDS011;25188;51.958;5.842;2022-12-07T06:11:38;8.83;;;4.53;;
39020;SDS011;25188;51.958;5.842;2022-12-07T06:14:22;10.23;;;4.67;;
39020;SDS011;25188;51.958;5.842;2022-12-07T06:16:48;11.07;;;4.73;;
39020;SDS011;25188;51.958;5.842;2022-12-07T06:19:14;12.27;;;4.70;;
39020;SDS011;25188;51.958;5.842;2022-12-07T06:21:40;8.23;;;4.30;;
39020;SDS011;25188;51.958;5.842;2022-12-07T06:24:06;9.97;;;4.67;;
39020;SDS011;25188;51.958;5.842;2022-12-07T06:26:32;10.47;;;5.40;;
39020;SDS011;25188;51.958;5.842;2022-12-07T06:29:00;11.37;;;4.57;;
39020;SDS011;25188;51.958;5.842;2022-12-07T06:31:26;8.73;;;4.40;;
39020;SDS011;25188;51.958;5.842;2022-12-07T06:33:56;14.20;;;4.87;;
39020;SDS011;25188;51.958;5.842;2022-12-07T06:36:23;11.87;;;4.33;;
39020;SDS011;25188;51.958;5.842;2022-12-07T06:38:48;15.47;;;4.97;;
39020;SDS011;25188;51.958;5.842;2022-12-07T06:41:14;8.77;;;4.50;;
39020;SDS011;25188;51.958;5.842;2022-12-07T06:43:40;8.97;;;4.43;;
39020;SDS011;25188;51.958;5.842;2022-12-07T06:46:07;8.97;;;3.83;;
39020;SDS011;25188;51.958;5.842;2022-12-07T06:48:32;11.80;;;4.20;;
39020;SDS011;25188;51.958;5.842;2022-12-07T06:50:58;12.47;;;4.47;;
39020;SDS011;25188;51.958;5.842;2022-12-07T06:53:24;13.17;;;4.77;;
39020;SDS011;25188;51.958;5.842;2022-12-07T06:55:50;10.53;;;4.03;;
39020;SDS011;25188;51.958;5.842;2022-12-07T06:58:16;14.37;;;4.73;;
39020;SDS011;25188;51.958;5.842;2022-12-07T07:00:42;8.87;;;3.47;;
39020;SDS011;25188;51.958;5.842;2022-12-07T07:03:08;10.33;;;3.83;;
39020;SDS011;25188;51.958;5.842;2022-12-07T07:05:34;11.47;;;4.27;;
39020;SDS011;25188;51.958;5.842;2022-12-07T07:08:01;12.07;;;3.70;;
39020;SDS011;25188;51.958;5.842;2022-12-07T07:10:27;13.13;;;4.33;;
39020;SDS011;25188;51.958;5.842;2022-12-07T07:12:53;6.57;;;3.43;;
39020;SDS011;25188;51.958;5.842;2022-12-07T07:15:18;7.63;;;3.73;;
39020;SDS011;25188;51.958;5.842;2022-12-07T07:17:44;13.33;;;3.73;;
39020;SDS011;25188;51.958;5.842;2022-12-07T07:20:10;16.03;;;4.87;;
39020;SDS011;25188;51.958;5.842;2022-12-07T07:22:36;11.80;;;3.43;;
39020;SDS011;25188;51.958;5.842;2022-12-07T07:25:02;11.30;;;2.93;;
39020;SDS011;25188;51.958;5.842;2022-12-07T07:27:28;9.63;;;2.47;;
39020;SDS011;25188;51.958;5.842;2022-12-07T07:29:53;11.77;;;3.77;;
39020;SDS011;25188;51.958;5.842;2022-12-07T07:32:19;10.43;;;3.40;;
39020;SDS011;25188;51.958;5.842;2022-12-07T07:34:46;10.80;;;3.30;;
39020;SDS011;25188;51.958;5.842;2022-12-07T07:37:12;10.23;;;2.30;;
39020;SDS011;25188;51.958;5.842;2022-12-07T07:39:38;9.10;;;2.63;;
39020;SDS011;25188;51.958;5.842;2022-12-07T07:42:04;9.63;;;2.90;;
39020;SDS011;25188;51.958;5.842;2022-12-07T07:44:29;8.37;;;3.13;;
39020;SDS011;25188;51.958;5.842;2022-12-07T07:46:56;13.13;;;3.10;;
39020;SDS011;25188;51.958;5.842;2022-12-07T07:49:21;11.07;;;3.27;;
39020;SDS011;25188;51.958;5.842;2022-12-07T07:51:50;6.77;;;2.70;;
39020;SDS011;25188;51.958;5.842;2022-12-07T07:54:15;10.23;;;4.33;;
39020;SDS011;25188;51.958;5.842;2022-12-07T07:56:41;10.97;;;2.90;;
39020;SDS011;25188;51.958;5.842;2022-12-07T07:59:07;8.20;;;3.03;;
39020;SDS011;25188;51.958;5.842;2022-12-07T08:01:33;11.33;;;3.70;;
39020;SDS011;25188;51.958;5.842;2022-12-07T08:03:58;10.03;;;2.80;;
39020;SDS011;25188;51.958;5.842;2022-12-07T08:06:24;10.20;;;3.33;;
39020;SDS011;25188;51.958;5.842;2022-12-07T08:08:50;8.53;;;2.83;;
39020;SDS011;25188;51.958;5.842;2022-12-07T08:11:16;9.43;;;2.90;;
39020;SDS011;25188;51.958;5.842;2022-12-07T08:13:41;9.13;;;2.83;;
39020;SDS011;25188;51.958;5.842;2022-12-07T08:16:10;10.27;;;2.90;;
39020;SDS011;25188;51.958;5.842;2022-12-07T08:18:36;8.07;;;2.50;;
39020;SDS011;25188;51.958;5.842;2022-12-07T08:21:03;14.23;;;3.07;;
39020;SDS011;25188;51.958;5.842;2022-12-07T08:23:29;8.97;;;2.37;;
39020;SDS011;25188;51.958;5.842;2022-12-07T08:26:15;10.17;;;3.00;;
39020;SDS011;25188;51.958;5.842;2022-12-07T08:28:41;12.60;;;2.63;;
39020;SDS011;25188;51.958;5.842;2022-12-07T08:31:12;9.03;;;2.30;;
39020;SDS011;25188;51.958;5.842;2022-12-07T08:33:39;14.97;;;2.93;;
39020;SDS011;25188;51.958;5.842;2022-12-07T08:36:06;7.27;;;2.13;;
39020;SDS011;25188;51.958;5.842;2022-12-07T08:38:34;17.50;;;2.87;;
39020;SDS011;25188;51.958;5.842;2022-12-07T08:41:01;8.43;;;2.33;;
39020;SDS011;25188;51.958;5.842;2022-12-07T08:43:26;9.57;;;2.30;;
39020;SDS011;25188;51.958;5.842;2022-12-07T08:46:38;7.03;;;2.17;;
39020;SDS011;25188;51.958;5.842;2022-12-07T08:48:48;9.30;;;2.67;;
39020;SDS011;25188;51.958;5.842;2022-12-07T08:51:23;6.70;;;1.80;;
39020;SDS011;25188;51.958;5.842;2022-12-07T08:53:49;6.57;;;2.60;;
39020;SDS011;25188;51.958;5.842;2022-12-07T08:56:17;12.87;;;3.40;;
39020;SDS011;25188;51.958;5.842;2022-12-07T08:58:43;7.87;;;2.03;;
39020;SDS011;25188;51.958;5.842;2022-12-07T09:01:10;10.53;;;2.20;;
39020;SDS011;25188;51.958;5.842;2022-12-07T09:03:35;8.97;;;2.17;;
39020;SDS011;25188;51.958;5.842;2022-12-07T09:06:01;5.53;;;1.93;;
39020;SDS011;25188;51.958;5.842;2022-12-07T09:08:31;8.57;;;1.63;;
39020;SDS011;25188;51.958;5.842;2022-12-07T09:11:00;8.43;;;2.13;;
39020;SDS011;25188;51.958;5.842;2022-12-07T09:13:26;8.90;;;1.73;;
39020;SDS011;25188;51.958;5.842;2022-12-07T09:15:52;8.13;;;1.73;;
39020;SDS011;25188;51.958;5.842;2022-12-07T09:18:17;9.17;;;1.33;;
39020;SDS011;25188;51.958;5.842;2022-12-07T09:20:43;7.20;;;1.43;;
39020;SDS011;25188;51.958;5.842;2022-12-07T09:23:08;8.53;;;1.67;;
39020;SDS011;25188;51.958;5.842;2022-12-07T09:25:34;9.80;;;1.60;;
39020;SDS011;25188;51.958;5.842;2022-12-07T09:28:00;4.70;;;1.40;;
39020;SDS011;25188;51.958;5.842;2022-12-07T09:30:26;7.13;;;1.83;;
39020;SDS011;25188;51.958;5.842;2022-12-07T09:32:53;7.30;;;1.57;;
39020;SDS011;25188;51.958;5.842;2022-12-07T09:35:20;6.60;;;1.60;;
39020;SDS011;25188;51.958;5.842;2022-12-07T09:37:45;8.90;;;1.60;;
39020;SDS011;25188;51.958;5.842;2022-12-07T09:40:11;6.20;;;1.20;;
39020;SDS011;25188;51.958;5.842;2022-12-07T09:42:38;6.77;;;1.20;;
39020;SDS011;25188;51.958;5.842;2022-12-07T09:45:07;4.60;;;0.93;;
39020;SDS011;25188;51.958;5.842;2022-12-07T09:47:39;5.82;;;0.85;;
39020;SDS011;25188;51.958;5.842;2022-12-07T09:50:05;7.88;;;1.83;;
39020;SDS011;25188;51.958;5.842;2022-12-07T09:52:37;5.28;;;1.35;;
39020;SDS011;25188;51.958;5.842;2022-12-07T09:55:03;6.57;;;1.00;;
39020;SDS011;25188;51.958;5.842;2022-12-07T09:57:34;6.78;;;1.20;;
39020;SDS011;25188;51.958;5.842;2022-12-07T10:00:04;5.13;;;1.27;;
39020;SDS011;25188;51.958;5.842;2022-12-07T10:02:44;7.57;;;1.35;;
39020;SDS011;25188;51.958;5.842;2022-12-07T10:05:20;3.80;;;1.00;;
39020;SDS011;25188;51.958;5.842;2022-12-07T10:07:51;5.35;;;1.35;;
39020;SDS011;25188;51.958;5.842;2022-12-07T10:10:28;5.90;;;1.10;;
39020;SDS011;25188;51.958;5.842;2022-12-07T10:13:01;4.40;;;1.05;;
39020;SDS011;25188;51.958;5.842;2022-12-07T10:24:13;6.90;;;1.15;;
39020;SDS011;25188;51.958;5.842;2022-12-07T10:26:41;5.03;;;1.48;;
39020;SDS011;25188;51.958;5.842;2022-12-07T10:31:50;7.15;;;1.40;;
39020;SDS011;25188;51.958;5.842;2022-12-07T10:34:30;10.27;;;2.55;;
39020;SDS011;25188;51.958;5.842;2022-12-07T10:45:23;6.25;;;1.25;;
39020;SDS011;25188;51.958;5.842;2022-12-07T10:48:35;6.03;;;1.20;;
39020;SDS011;25188;51.958;5.842;2022-12-07T10:51:25;6.65;;;1.10;;
39020;SDS011;25188;51.958;5.842;2022-12-07T11:12:52;4.35;;;0.80;;
39020;SDS011;25188;51.958;5.842;2022-12-07T11:15:29;6.85;;;0.93;;
39020;SDS011;25188;51.958;5.842;2022-12-07T11:18:11;9.07;;;1.30;;
39020;SDS011;25188;51.958;5.842;2022-12-07T11:23:49;5.78;;;1.23;;
39020;SDS011;25188;51.958;5.842;2022-12-07T11:26:46;6.20;;;1.10;;
39020;SDS011;25188;51.958;5.842;2022-12-07T11:40:48;8.07;;;1.52;;
39020;SDS011;25188;51.958;5.842;2022-12-07T11:43:31;6.88;;;1.27;;
39020;SDS011;25188;51.958;5.842;2022-12-07T11:46:02;4.60;;;1.05;;
39020;SDS011;25188;51.958;5.842;2022-12-07T11:48:47;4.88;;;0.98;;
39020;SDS011;25188;51.958;5.842;2022-12-07T11:51:20;4.25;;;1.23;;
39020;SDS011;25188;51.958;5.842;2022-12-07T11:53:58;7.80;;;1.15;;
39020;SDS011;25188;51.958;5.842;2022-12-07T11:56:28;7.33;;;1.13;;
39020;SDS011;25188;51.958;5.842;2022-12-07T11:59:10;5.43;;;0.80;;
39020;SDS011;25188;51.958;5.842;2022-12-07T12:01:47;3.03;;;0.90;;
39020;SDS011;25188;51.958;5.842;2022-12-07T12:04:27;4.97;;;0.98;;
39020;SDS011;25188;51.958;5.842;2022-12-07T12:06:57;8.10;;;1.20;;
39020;SDS011;25188;51.958;5.842;2022-12-07T12:17:58;3.40;;;0.98;;
39020;SDS011;25188;51.958;5.842;2022-12-07T12:20:31;5.85;;;1.15;;
39020;SDS011;25188;51.958;5.842;2022-12-07T12:23:06;6.07;;;1.60;;
39020;SDS011;25188;51.958;5.842;2022-12-07T12:25:39;6.03;;;1.13;;
39020;SDS011;25188;51.958;5.842;2022-12-07T12:31:10;5.18;;;1.00;;
39020;SDS011;25188;51.958;5.842;2022-12-07T12:34:01;3.38;;;0.98;;
39020;SDS011;25188;51.958;5.842;2022-12-07T12:44:38;6.57;;;0.82;;
39020;SDS011;25188;51.958;5.842;2022-12-07T12:54:25;6.43;;;1.25;;
39020;SDS011;25188;51.958;5.842;2022-12-07T12:56:55;5.38;;;1.00;;
39020;SDS011;25188;51.958;5.842;2022-12-07T12:59:25;4.35;;;0.80;;
39020;SDS011;25188;51.958;5.842;2022-12-07T13:02:16;5.65;;;1.05;;
39020;SDS011;25188;51.958;5.842;2022-12-07T13:04:48;2.85;;;0.77;;
39020;SDS011;25188;51.958;5.842;2022-12-07T13:18:35;3.13;;;0.70;;
39020;SDS011;25188;51.958;5.842;2022-12-07T13:26:00;7.30;;;1.50;;
39020;SDS011;25188;51.958;5.842;2022-12-07T13:28:52;4.03;;;1.30;;
39020;SDS011;25188;51.958;5.842;2022-12-07T13:31:45;5.43;;;1.30;;
39020;SDS011;25188;51.958;5.842;2022-12-07T13:36:59;6.25;;;1.05;;
39020;SDS011;25188;51.958;5.842;2022-12-07T13:39:27;5.15;;;0.90;;
39020;SDS011;25188;51.958;5.842;2022-12-07T13:44:22;5.53;;;0.82;;
39020;SDS011;25188;51.958;5.842;2022-12-07T13:49:28;4.20;;;0.60;;
39020;SDS011;25188;51.958;5.842;2022-12-07T13:52:08;4.50;;;0.60;;
39020;SDS011;25188;51.958;5.842;2022-12-07T13:54:47;7.20;;;1.10;;
39020;SDS011;25188;51.958;5.842;2022-12-07T13:57:15;4.55;;;1.00;;
39020;SDS011;25188;51.958;5.842;2022-12-07T13:59:42;4.80;;;0.88;;
39020;SDS011;25188;51.958;5.842;2022-12-07T14:04:46;3.25;;;0.70;;
39020;SDS011;25188;51.958;5.842;2022-12-07T14:07:20;4.40;;;1.02;;
39020;SDS011;25188;51.958;5.842;2022-12-07T14:09:56;3.20;;;0.68;;
39020;SDS011;25188;51.958;5.842;2022-12-07T14:12:30;4.72;;;0.93;;
39020;SDS011;25188;51.958;5.842;2022-12-07T14:14:58;6.13;;;0.85;;
39020;SDS011;25188;51.958;5.842;2022-12-07T14:17:25;4.88;;;0.70;;
39020;SDS011;25188;51.958;5.842;2022-12-07T14:19:56;6.18;;;0.82;;
39020;SDS011;25188;51.958;5.842;2022-12-07T14:22:36;5.78;;;0.80;;
39020;SDS011;25188;51.958;5.842;2022-12-07T14:27:38;2.80;;;0.50;;
39020;SDS011;25188;51.958;5.842;2022-12-07T14:30:15;4.25;;;0.70;;
39020;SDS011;25188;51.958;5.842;2022-12-07T14:32:43;3.93;;;0.73;;
39020;SDS011;25188;51.958;5.842;2022-12-07T14:35:13;2.87;;;0.60;;
39020;SDS011;25188;51.958;5.842;2022-12-07T14:37:42;5.40;;;0.60;;
39020;SDS011;25188;51.958;5.842;2022-12-07T14:40:13;5.47;;;1.00;;
39020;SDS011;25188;51.958;5.842;2022-12-07T14:42:41;5.00;;;0.60;;
39020;SDS011;25188;51.958;5.842;2022-12-07T14:45:15;4.90;;;0.70;;
39020;SDS011;25188;51.958;5.842;2022-12-07T14:47:43;2.87;;;0.50;;
39020;SDS011;25188;51.958;5.842;2022-12-07T14:50:13;3.07;;;0.80;;
39020;SDS011;25188;51.958;5.842;2022-12-07T14:52:42;2.93;;;0.90;;
39020;SDS011;25188;51.958;5.842;2022-12-07T14:55:16;5.60;;;0.90;;
39020;SDS011;25188;51.958;5.842;2022-12-07T14:57:53;5.97;;;0.90;;
39020;SDS011;25188;51.958;5.842;2022-12-07T15:00:20;2.57;;;0.63;;
39020;SDS011;25188;51.958;5.842;2022-12-07T15:02:48;6.00;;;0.70;;
39020;SDS011;25188;51.958;5.842;2022-12-07T15:05:14;2.97;;;0.70;;
39020;SDS011;25188;51.958;5.842;2022-12-07T15:07:40;5.00;;;0.83;;
39020;SDS011;25188;51.958;5.842;2022-12-07T15:10:08;6.53;;;1.00;;
39020;SDS011;25188;51.958;5.842;2022-12-07T15:12:41;3.20;;;1.03;;
39020;SDS011;25188;51.958;5.842;2022-12-07T15:15:07;5.53;;;0.83;;
39020;SDS011;25188;51.958;5.842;2022-12-07T15:17:33;4.03;;;1.03;;
39020;SDS011;25188;51.958;5.842;2022-12-07T15:19:58;6.50;;;1.13;;
39020;SDS011;25188;51.958;5.842;2022-12-07T15:22:24;4.27;;;0.80;;
39020;SDS011;25188;51.958;5.842;2022-12-07T15:24:50;5.17;;;1.07;;
39020;SDS011;25188;51.958;5.842;2022-12-07T15:27:15;4.37;;;1.07;;
39020;SDS011;25188;51.958;5.842;2022-12-07T15:29:41;6.33;;;1.30;;
39020;SDS011;25188;51.958;5.842;2022-12-07T15:32:06;6.07;;;1.70;;
39020;SDS011;25188;51.958;5.842;2022-12-07T15:34:32;9.00;;;2.63;;
39020;SDS011;25188;51.958;5.842;2022-12-07T15:36:58;13.27;;;2.77;;
39020;SDS011;25188;51.958;5.842;2022-12-07T15:39:23;14.30;;;3.70;;
39020;SDS011;25188;51.958;5.842;2022-12-07T15:41:49;10.43;;;2.80;;
39020;SDS011;25188;51.958;5.842;2022-12-07T15:44:15;9.63;;;3.17;;
39020;SDS011;25188;51.958;5.842;2022-12-07T15:46:59;9.38;;;2.60;;
39020;SDS011;25188;51.958;5.842;2022-12-07T15:49:25;7.83;;;2.40;;
39020;SDS011;25188;51.958;5.842;2022-12-07T15:51:52;8.13;;;2.50;;
39020;SDS011;25188;51.958;5.842;2022-12-07T15:54:27;7.67;;;2.53;;
39020;SDS011;25188;51.958;5.842;2022-12-07T15:56:54;10.57;;;3.60;;
39020;SDS011;25188;51.958;5.842;2022-12-07T15:59:21;9.70;;;2.67;;
39020;SDS011;25188;51.958;5.842;2022-12-07T16:01:46;7.47;;;2.10;;
39020;SDS011;25188;51.958;5.842;2022-12-07T16:04:12;9.17;;;2.67;;
39020;SDS011;25188;51.958;5.842;2022-12-07T16:06:38;7.30;;;2.00;;
39020;SDS011;25188;51.958;5.842;2022-12-07T16:09:04;10.73;;;1.40;;
39020;SDS011;25188;51.958;5.842;2022-12-07T16:11:30;4.60;;;1.40;;
39020;SDS011;25188;51.958;5.842;2022-12-07T16:13:56;7.63;;;1.37;;
39020;SDS011;25188;51.958;5.842;2022-12-07T16:16:22;5.87;;;1.40;;
39020;SDS011;25188;51.958;5.842;2022-12-07T16:18:48;4.40;;;1.20;;
39020;SDS011;25188;51.958;5.842;2022-12-07T16:21:15;5.10;;;1.07;;
39020;SDS011;25188;51.958;5.842;2022-12-07T16:23:41;4.80;;;0.93;;
39020;SDS011;25188;51.958;5.842;2022-12-07T16:26:08;7.00;;;1.13;;
39020;SDS011;25188;51.958;5.842;2022-12-07T16:28:37;4.87;;;1.27;;
39020;SDS011;25188;51.958;5.842;2022-12-07T16:31:03;5.40;;;1.23;;
39020;SDS011;25188;51.958;5.842;2022-12-07T16:33:31;8.53;;;1.33;;
39020;SDS011;25188;51.958;5.842;2022-12-07T16:35:59;4.13;;;1.10;;
39020;SDS011;25188;51.958;5.842;2022-12-07T16:38:38;9.10;;;1.13;;
39020;SDS011;25188;51.958;5.842;2022-12-07T16:41:04;6.10;;;1.07;;
39020;SDS011;25188;51.958;5.842;2022-12-07T16:43:31;3.17;;;1.07;;
39020;SDS011;25188;51.958;5.842;2022-12-07T16:45:57;8.03;;;1.23;;
39020;SDS011;25188;51.958;5.842;2022-12-07T16:48:23;4.33;;;0.60;;
39020;SDS011;25188;51.958;5.842;2022-12-07T16:50:48;7.37;;;1.10;;
39020;SDS011;25188;51.958;5.842;2022-12-07T16:53:14;3.70;;;1.30;;
39020;SDS011;25188;51.958;5.842;2022-12-07T16:55:44;4.13;;;1.17;;
39020;SDS011;25188;51.958;5.842;2022-12-07T16:58:11;6.27;;;1.90;;
39020;SDS011;25188;51.958;5.842;2022-12-07T17:00:38;5.53;;;1.50;;
39020;SDS011;25188;51.958;5.842;2022-12-07T17:03:05;6.03;;;1.97;;
39020;SDS011;25188;51.958;5.842;2022-12-07T17:05:31;9.23;;;2.43;;
39020;SDS011;25188;51.958;5.842;2022-12-07T17:07:57;6.30;;;1.80;;
39020;SDS011;25188;51.958;5.842;2022-12-07T17:10:24;5.57;;;2.70;;
39020;SDS011;25188;51.958;5.842;2022-12-07T17:12:50;5.70;;;1.87;;
39020;SDS011;25188;51.958;5.842;2022-12-07T17:15:16;7.47;;;1.60;;
39020;SDS011;25188;51.958;5.842;2022-12-07T17:17:43;4.43;;;1.10;;
39020;SDS011;25188;51.958;5.842;2022-12-07T17:20:10;4.67;;;1.60;;
39020;SDS011;25188;51.958;5.842;2022-12-07T17:22:36;6.23;;;1.57;;
39020;SDS011;25188;51.958;5.842;2022-12-07T17:25:03;7.77;;;2.17;;